createdAt,value
2022-12-26T00:01:23.862Z,10.52
2022-12-26T00:03:24.446Z,10.56
2022-12-26T00:05:01.506Z,10.56
2022-12-26T00:05:23.213Z,10.56
2022-12-26T00:07:22.925Z,10.55
2022-12-26T00:09:24.174Z,10.5
2022-12-26T00:11:23.741Z,10.53
2022-12-26T00:13:49.297Z,10.56
2022-12-26T00:15:23.552Z,10.56
2022-12-26T00:17:23.150Z,10.54
2022-12-26T00:19:23.778Z,10.56
2022-12-26T00:21:23.616Z,10.55
2022-12-26T00:23:23.773Z,10.55
2022-12-26T00:25:24.374Z,10.5
2022-12-26T00:27:23.439Z,10.51
2022-12-26T00:29:24.152Z,10.55
2022-12-26T00:31:24.281Z,10.56
2022-12-26T00:33:23.746Z,10.56
2022-12-26T00:35:24.634Z,10.56
2022-12-26T00:37:23.649Z,10.54
2022-12-26T00:39:23.960Z,10.56
2022-12-26T00:41:23.012Z,10.56
2022-12-26T00:43:22.927Z,10.56
2022-12-26T00:45:23.280Z,10.56
2022-12-26T00:47:23.426Z,10.56
2022-12-26T00:49:24.060Z,10.56
2022-12-26T00:51:24.610Z,10.56
2022-12-26T00:53:23.478Z,10.56
2022-12-26T00:55:24.042Z,10.56
2022-12-26T00:57:23.410Z,10.56
2022-12-26T00:59:23.133Z,10.56
2022-12-26T01:03:23.270Z,10.56
2022-12-26T01:05:23.612Z,10.56
2022-12-26T01:07:23.609Z,10.56
2022-12-26T01:08:33.127Z,10.56
2022-12-26T01:09:23.211Z,10.56
2022-12-26T01:11:23.479Z,10.56
2022-12-26T01:13:23.400Z,10.56
2022-12-26T01:15:23.794Z,10.56
2022-12-26T01:17:23.901Z,10.56
2022-12-26T01:19:23.944Z,10.56
2022-12-26T01:21:23.663Z,10.56
2022-12-26T01:23:23.463Z,10.56
2022-12-26T01:25:23.527Z,10.56
2022-12-26T01:26:29.242Z,10.56
2022-12-26T01:27:22.972Z,10.56
2022-12-26T01:29:23.001Z,10.56
2022-12-26T01:30:23.739Z,10.56
2022-12-26T01:31:24.151Z,10.56
2022-12-26T01:32:23.296Z,10.56
2022-12-26T01:33:23.714Z,10.56
2022-12-26T01:35:23.515Z,10.56
2022-12-26T01:37:23.752Z,10.56
2022-12-26T01:39:24.156Z,10.56
2022-12-26T01:41:23.548Z,10.56
2022-12-26T01:43:23.254Z,10.57
2022-12-26T01:45:23.516Z,10.56
2022-12-26T01:47:23.893Z,10.56
2022-12-26T01:49:24.239Z,10.56
2022-12-26T01:51:23.283Z,10.56
2022-12-26T01:53:24.168Z,10.56
2022-12-26T01:54:50.861Z,10.56
2022-12-26T01:55:24.226Z,10.56
2022-12-26T01:57:23.397Z,10.56
2022-12-26T01:59:23.831Z,10.56
2022-12-26T02:01:23.733Z,10.56
2022-12-26T02:03:23.664Z,10.56
2022-12-26T02:05:23.320Z,10.56
2022-12-26T02:07:23.541Z,10.56
2022-12-26T02:09:23.478Z,10.56
2022-12-26T02:11:46.592Z,10.59
2022-12-26T02:12:47.084Z,10.58
2022-12-26T02:13:23.227Z,10.58
2022-12-26T02:15:24.462Z,10.56
2022-12-26T02:17:23.187Z,10.61
2022-12-26T02:18:22.520Z,10.61
2022-12-26T02:19:22.939Z,10.56
2022-12-26T02:21:23.285Z,10.56
2022-12-26T02:23:23.182Z,10.56
2022-12-26T02:25:24.053Z,10.56
2022-12-26T02:27:22.775Z,10.58
2022-12-26T02:29:22.566Z,10.57
2022-12-26T02:31:22.457Z,8.800
2022-12-26T02:33:22.438Z,10.58
2022-12-26T02:35:23.413Z,10.57
2022-12-26T02:37:23.515Z,10.58
2022-12-26T02:39:54.721Z,10.57
2022-12-26T02:41:23.392Z,10.57
2022-12-26T02:43:22.474Z,10.56
2022-12-26T02:45:24.079Z,10.58
2022-12-26T02:47:22.151Z,10.56
2022-12-26T02:49:22.454Z,10.56
2022-12-26T02:51:23.090Z,10.56
2022-12-26T02:52:22.671Z,10.56
2022-12-26T02:53:23.197Z,10.56
2022-12-26T02:54:22.744Z,10.56
2022-12-26T02:55:23.520Z,10.60
2022-12-26T02:57:22.789Z,10.59
2022-12-26T02:59:55.359Z,10.58
2022-12-26T03:01:23.285Z,10.62
2022-12-26T03:03:23.621Z,10.58
2022-12-26T03:05:23.128Z,10.56
2022-12-26T03:07:22.976Z,10.56
2022-12-26T03:08:22.844Z,10.56
2022-12-26T03:09:23.560Z,10.56
2022-12-26T03:11:23.462Z,10.56
2022-12-26T03:13:22.508Z,10.61
2022-12-26T03:15:23.167Z,10.62
2022-12-26T03:17:23.143Z,10.60
2022-12-26T03:19:23.199Z,10.57
2022-12-26T03:21:22.710Z,10.58
2022-12-26T03:23:22.658Z,10.56
2022-12-26T03:25:23.252Z,10.56
2022-12-26T03:27:22.890Z,10.56
2022-12-26T03:29:27.895Z,10.59
2022-12-26T03:31:23.008Z,10.58
2022-12-26T03:32:22.538Z,10.58
2022-12-26T03:33:23.143Z,10.61
2022-12-26T03:35:22.645Z,10.62
2022-12-26T03:37:23.795Z,10.62
2022-12-26T03:39:23.839Z,10.62
2022-12-26T03:41:23.556Z,10.60
2022-12-26T03:43:22.377Z,10.58
2022-12-26T03:45:23.476Z,10.62
2022-12-26T03:47:23.435Z,10.62
2022-12-26T03:49:23.084Z,10.61
2022-12-26T03:51:23.274Z,10.59
2022-12-26T03:53:23.353Z,10.61
2022-12-26T03:55:22.739Z,10.62
2022-12-26T03:57:22.737Z,10.61
2022-12-26T03:59:23.396Z,10.60
2022-12-26T04:01:22.958Z,10.60
2022-12-26T04:03:22.903Z,10.61
2022-12-26T04:05:23.465Z,10.62
2022-12-26T04:07:23.446Z,10.61
2022-12-26T04:08:27.710Z,10.56
2022-12-26T04:09:23.529Z,10.58
2022-12-26T04:11:23.122Z,10.60
2022-12-26T04:13:23.079Z,10.61
2022-12-26T04:14:22.632Z,10.61
2022-12-26T04:15:23.332Z,10.62
2022-12-26T04:17:23.091Z,10.62
2022-12-26T04:19:23.801Z,10.62
2022-12-26T04:21:23.106Z,10.60
2022-12-26T04:23:22.850Z,10.59
2022-12-26T04:25:22.521Z,10.61
2022-12-26T04:27:22.168Z,10.62
2022-12-26T04:29:22.475Z,10.58
2022-12-26T04:31:23.342Z,10.62
2022-12-26T04:33:22.756Z,10.60
2022-12-26T04:35:23.143Z,10.61
2022-12-26T04:36:22.353Z,10.61
2022-12-26T04:37:22.340Z,10.62
2022-12-26T04:39:22.846Z,10.62
2022-12-26T04:41:22.504Z,10.62
2022-12-26T04:43:59.769Z,10.60
2022-12-26T04:45:23.369Z,10.58
2022-12-26T04:47:23.094Z,10.59
2022-12-26T04:49:22.369Z,10.58
2022-12-26T04:51:23.114Z,10.62
2022-12-26T04:53:22.923Z,10.62
2022-12-26T04:55:22.827Z,10.62
2022-12-26T04:56:21.948Z,10.62
2022-12-26T04:57:23.116Z,10.61
2022-12-26T04:59:22.495Z,10.62
2022-12-26T05:01:22.893Z,10.62
2022-12-26T05:03:27.531Z,10.62
2022-12-26T05:05:23.702Z,10.62
2022-12-26T05:07:22.296Z,10.62
2022-12-26T05:08:22.292Z,10.62
2022-12-26T05:09:22.601Z,10.62
2022-12-26T05:10:23.049Z,10.62
2022-12-26T05:11:22.476Z,10.62
2022-12-26T05:12:22.649Z,10.62
2022-12-26T05:13:23.032Z,10.62
2022-12-26T05:15:23.342Z,10.62
2022-12-26T05:17:22.646Z,10.62
2022-12-26T05:19:22.496Z,10.62
2022-12-26T05:21:23.155Z,10.62
2022-12-26T05:23:23.499Z,10.62
2022-12-26T05:25:23.508Z,10.62
2022-12-26T05:27:23.574Z,10.62
2022-12-26T05:29:22.958Z,10.62
2022-12-26T05:31:23.495Z,10.62
2022-12-26T05:33:23.694Z,10.62
2022-12-26T05:35:24.266Z,10.62
2022-12-26T05:37:23.498Z,10.62
2022-12-26T05:39:23.998Z,10.62
2022-12-26T05:41:23.405Z,10.62
2022-12-26T05:43:23.222Z,10.62
2022-12-26T05:45:23.892Z,10.62
2022-12-26T05:47:24.310Z,10.62
2022-12-26T05:49:23.673Z,10.62
2022-12-26T05:51:24.170Z,10.62
2022-12-26T05:53:23.825Z,10.61
2022-12-26T05:55:23.777Z,10.61
2022-12-26T05:57:23.053Z,10.60
2022-12-26T05:59:23.329Z,10.56
2022-12-26T06:01:23.979Z,10.59
2022-12-26T06:03:24.494Z,10.57
2022-12-26T06:05:24.687Z,10.56
2022-12-26T06:07:23.460Z,10.56
2022-12-26T06:09:24.079Z,10.56
2022-12-26T06:11:23.494Z,10.56
2022-12-26T06:13:24.134Z,10.56
2022-12-26T06:15:23.716Z,10.56
2022-12-26T06:17:24.648Z,10.56
2022-12-26T06:19:23.995Z,10.56
2022-12-26T06:21:23.959Z,10.56
2022-12-26T06:23:24.578Z,10.56
2022-12-26T06:25:23.960Z,10.56
2022-12-26T06:27:24.601Z,10.56
2022-12-26T06:29:23.861Z,10.56
2022-12-26T06:31:24.070Z,10.56
2022-12-26T06:33:23.265Z,10.56
2022-12-26T06:35:24.743Z,10.56
2022-12-26T06:37:24.675Z,10.56
2022-12-26T06:39:24.076Z,10.56
2022-12-26T06:41:23.773Z,10.56
2022-12-26T06:43:24.166Z,10.56
2022-12-26T06:44:27.660Z,10.56
2022-12-26T06:45:24.083Z,10.56
2022-12-26T06:47:23.642Z,10.56
2022-12-26T06:49:28.732Z,10.54
2022-12-26T06:51:24.407Z,10.56
2022-12-26T06:53:24.150Z,10.56
2022-12-26T06:55:23.677Z,10.56
2022-12-26T06:57:22.992Z,10.56
2022-12-26T06:59:23.237Z,10.56
2022-12-26T07:01:24.729Z,10.56
2022-12-26T07:03:24.560Z,10.53
2022-12-26T07:05:24.536Z,10.54
2022-12-26T07:07:23.949Z,10.53
2022-12-26T07:09:25.938Z,10.53
2022-12-26T07:11:23.979Z,10.51
2022-12-26T07:13:24.199Z,10.5
2022-12-26T07:15:24.387Z,10.5
2022-12-26T07:17:24.279Z,10.5
2022-12-26T07:19:23.883Z,10.5
2022-12-26T07:21:23.206Z,10.5
2022-12-26T07:23:24.142Z,10.5
2022-12-26T07:25:24.118Z,10.5
2022-12-26T07:27:24.480Z,10.5
2022-12-26T07:29:23.185Z,10.5
2022-12-26T07:31:24.183Z,10.5
2022-12-26T07:33:26.678Z,10.5
2022-12-26T07:34:31.350Z,10.5
2022-12-26T07:35:25.218Z,10.5
2022-12-26T07:37:26.268Z,10.5
2022-12-26T07:38:27.398Z,10.5
2022-12-26T07:39:26.367Z,10.5
2022-12-26T07:41:25.765Z,10.5
2022-12-26T07:43:26.380Z,10.5
2022-12-26T07:45:26.447Z,10.5
2022-12-26T07:46:28.017Z,10.5
2022-12-26T07:47:26.191Z,10.5
2022-12-26T07:49:25.283Z,10.5
2022-12-26T07:51:27.344Z,10.5
2022-12-26T07:52:26.708Z,10.5
2022-12-26T07:53:27.606Z,10.5
2022-12-26T07:55:25.317Z,10.5
2022-12-26T07:56:26.043Z,10.5
2022-12-26T07:57:58.346Z,10.5
2022-12-26T07:59:25.267Z,10.5
2022-12-26T08:01:28.100Z,10.5
2022-12-26T08:02:27.804Z,10.5
2022-12-26T08:03:27.071Z,10.5
2022-12-26T08:05:25.558Z,10.5
2022-12-26T08:07:27.082Z,10.5
2022-12-26T08:09:25.308Z,10.5
2022-12-26T08:11:29.122Z,10.5
2022-12-26T08:12:27.124Z,10.5
2022-12-26T08:13:25.012Z,10.5
2022-12-26T08:15:26.510Z,10.5
2022-12-26T08:16:26.871Z,10.5
2022-12-26T08:17:27.139Z,10.5
2022-12-26T08:19:26.112Z,10.5
2022-12-26T08:21:27.713Z,10.5
2022-12-26T08:22:28.648Z,10.5
2022-12-26T08:23:26.356Z,10.5
2022-12-26T08:25:32.599Z,10.5
2022-12-26T08:26:28.280Z,10.5
2022-12-26T08:27:27.132Z,10.5
2022-12-26T08:29:24.215Z,10.5
2022-12-26T08:32:27.482Z,10.5
2022-12-26T08:33:25.217Z,10.5
2022-12-26T08:35:24.795Z,10.52
2022-12-26T08:37:24.762Z,10.5
2022-12-26T08:39:25.808Z,10.51
2022-12-26T08:40:51.399Z,10.50
2022-12-26T08:41:25.037Z,10.5
2022-12-26T08:44:36.534Z,10.53
2022-12-26T08:45:24.921Z,10.51
2022-12-26T08:46:29.928Z,10.5
2022-12-26T08:47:25.434Z,10.5
2022-12-26T08:49:26.433Z,10.5
2022-12-26T08:51:27.312Z,10.5
2022-12-26T08:53:25.340Z,10.51
2022-12-26T08:55:26.834Z,10.53
2022-12-26T08:56:26.837Z,10.51
2022-12-26T08:57:26.102Z,10.52
2022-12-26T08:59:26.259Z,10.5
2022-12-26T09:00:27.602Z,10.52
2022-12-26T09:01:27.422Z,10.53
2022-12-26T09:02:26.993Z,10.53
2022-12-26T09:03:25.876Z,10.53
2022-12-26T09:04:40.626Z,10.53
2022-12-26T09:05:27.319Z,10.53
2022-12-26T09:07:27.130Z,10.52
2022-12-26T09:09:25.177Z,10.5
2022-12-26T09:11:26.272Z,10.5
2022-12-26T09:13:25.783Z,10.5
2022-12-26T09:15:27.589Z,10.5
2022-12-26T09:16:51.425Z,10.52
2022-12-26T09:17:26.792Z,10.54
2022-12-26T09:19:25.165Z,10.52
2022-12-26T09:21:26.552Z,10.5
2022-12-26T09:22:45.064Z,10.5
2022-12-26T09:23:25.665Z,10.51
2022-12-26T09:25:26.366Z,10.5
2022-12-26T09:27:26.849Z,10.5
2022-12-26T09:29:27.382Z,10.5
2022-12-26T09:30:27.715Z,10.5
2022-12-26T09:31:26.991Z,10.51
2022-12-26T09:33:24.802Z,10.54
2022-12-26T09:35:27.589Z,10.5
2022-12-26T09:37:27.546Z,10.5
2022-12-26T09:38:27.169Z,10.5
2022-12-26T09:39:25.100Z,10.55
2022-12-26T09:41:26.313Z,10.52
2022-12-26T09:43:25.503Z,10.5
2022-12-26T09:45:26.161Z,10.55
2022-12-26T09:47:26.726Z,10.53
2022-12-26T09:49:25.405Z,10.52
2022-12-26T09:51:25.055Z,10.55
2022-12-26T09:53:25.613Z,10.53
2022-12-26T09:55:25.823Z,10.5
2022-12-26T09:57:21.342Z,10.5
2022-12-26T09:57:31.572Z,10.52
2022-12-26T09:59:25.051Z,10.56
2022-12-26T10:00:25.398Z,10.56
2022-12-26T10:01:26.676Z,10.56
2022-12-26T10:03:26.042Z,10.56
2022-12-26T10:05:25.445Z,10.56
2022-12-26T10:07:25.373Z,10.56
2022-12-26T10:09:24.997Z,10.56
2022-12-26T10:11:23.640Z,10.56
2022-12-26T10:13:24.402Z,10.54
2022-12-26T10:14:30.879Z,10.56
2022-12-26T10:15:25.264Z,10.56
2022-12-26T10:17:25.171Z,10.56
2022-12-26T10:19:28.786Z,10.56
2022-12-26T10:21:24.152Z,10.56
2022-12-26T10:23:24.479Z,10.56
2022-12-26T10:25:27.535Z,10.53
2022-12-26T10:27:23.907Z,10.52
2022-12-26T10:29:23.549Z,10.52
2022-12-26T10:31:24.800Z,10.55
2022-12-26T10:33:23.902Z,10.54
2022-12-26T10:35:24.403Z,10.5
2022-12-26T10:37:23.250Z,10.53
2022-12-26T10:38:27.483Z,10.54
2022-12-26T10:39:24.680Z,10.5
2022-12-26T10:41:23.497Z,10.52
2022-12-26T10:43:23.690Z,10.56
2022-12-26T10:45:24.739Z,10.55
2022-12-26T10:47:23.846Z,10.54
2022-12-26T10:49:24.431Z,10.55
2022-12-26T10:51:24.417Z,10.53
2022-12-26T10:53:24.353Z,10.5
2022-12-26T10:55:40.530Z,10.52
2022-12-26T10:56:27.588Z,10.52
2022-12-26T10:57:24.009Z,10.56
2022-12-26T10:59:23.192Z,10.56
2022-12-26T11:01:24.927Z,10.56
2022-12-26T11:03:24.531Z,10.56
2022-12-26T11:06:09.439Z,10.56
2022-12-26T11:06:27.406Z,10.56
2022-12-26T11:07:23.838Z,10.56
2022-12-26T11:09:29.165Z,10.55
2022-12-26T11:11:24.090Z,10.55
2022-12-26T11:13:23.779Z,10.56
2022-12-26T11:15:24.417Z,10.56
2022-12-26T11:17:23.900Z,10.56
2022-12-26T11:19:31.534Z,10.56
2022-12-26T11:21:24.043Z,10.56
2022-12-26T11:23:23.624Z,10.56
2022-12-26T11:25:23.628Z,10.56
2022-12-26T11:27:23.315Z,10.56
2022-12-26T11:29:22.741Z,10.56
2022-12-26T11:31:23.568Z,10.56
2022-12-26T11:33:23.897Z,10.56
2022-12-26T11:35:22.698Z,10.56
2022-12-26T11:37:23.684Z,10.56
2022-12-26T11:39:25.506Z,10.56
2022-12-26T11:41:43.502Z,10.56
2022-12-26T11:43:25.631Z,10.56
2022-12-26T11:45:38.713Z,10.56
2022-12-26T11:47:24.115Z,10.56
2022-12-26T11:49:25.407Z,10.56
2022-12-26T11:51:44.492Z,10.56
2022-12-26T11:53:25.560Z,10.56
2022-12-26T11:55:26.142Z,10.56
2022-12-26T11:57:40.690Z,10.56
2022-12-26T11:59:52.631Z,10.56
2022-12-26T12:01:25.823Z,10.56
2022-12-26T12:03:25.049Z,10.58
2022-12-26T12:05:24.277Z,10.61
2022-12-26T12:07:25.590Z,10.62
2022-12-26T12:09:24.628Z,10.56
2022-12-26T12:11:24.792Z,10.56
2022-12-26T12:13:25.230Z,10.56
2022-12-26T12:15:53.536Z,10.56
2022-12-26T12:17:24.711Z,10.56
2022-12-26T12:19:23.836Z,10.56
2022-12-26T12:21:23.407Z,10.56
2022-12-26T12:23:24.871Z,10.56
2022-12-26T12:25:24.964Z,10.56
2022-12-26T12:27:25.121Z,10.56
2022-12-26T12:29:25.278Z,10.56
2022-12-26T12:31:24.780Z,10.56
2022-12-26T12:33:24.809Z,10.56
2022-12-26T12:35:24.575Z,10.56
2022-12-26T12:37:23.960Z,10.56
2022-12-26T12:39:25.507Z,10.56
2022-12-26T12:41:24.659Z,10.56
2022-12-26T12:43:26.547Z,10.56
2022-12-26T12:45:25.715Z,10.56
2022-12-26T12:47:25.476Z,10.56
2022-12-26T12:49:25.995Z,10.56
2022-12-26T12:51:23.801Z,10.56
2022-12-26T12:53:25.184Z,10.56
2022-12-26T12:55:24.683Z,10.60
2022-12-26T12:57:28.009Z,10.56
2022-12-26T12:58:27.069Z,10.60
2022-12-26T12:59:28.282Z,10.62
2022-12-26T13:00:27.072Z,10.61
2022-12-26T13:01:25.478Z,10.62
2022-12-26T13:02:31.260Z,10.57
2022-12-26T13:03:27.632Z,10.61
2022-12-26T13:04:27.571Z,10.61
2022-12-26T13:05:26.330Z,10.58
2022-12-26T13:07:27.483Z,10.56
2022-12-26T13:08:27.264Z,10.58
2022-12-26T13:09:27.435Z,10.57
2022-12-26T13:11:26.779Z,10.59
2022-12-26T13:12:27.526Z,10.56
2022-12-26T13:13:27.295Z,10.56
2022-12-26T13:15:25.703Z,10.56
2022-12-26T13:17:25.569Z,10.56
2022-12-26T13:18:26.364Z,10.56
2022-12-26T13:19:25.729Z,10.56
2022-12-26T13:21:24.253Z,10.58
2022-12-26T13:23:23.779Z,10.56
2022-12-26T13:25:24.234Z,10.56
2022-12-26T13:27:23.519Z,10.56
2022-12-26T13:29:23.077Z,10.56
2022-12-26T13:30:23.360Z,10.56
2022-12-26T13:31:23.090Z,10.56
2022-12-26T13:32:22.599Z,10.56
2022-12-26T13:33:24.271Z,10.56
2022-12-26T13:35:25.815Z,10.56
2022-12-26T13:37:24.992Z,10.60
2022-12-26T13:38:28.722Z,10.62
2022-12-26T13:39:25.922Z,10.61
2022-12-26T13:40:31.618Z,10.60
2022-12-26T13:41:25.681Z,10.57
2022-12-26T13:42:33.022Z,10.56
2022-12-26T13:43:25.051Z,10.56
2022-12-26T13:45:26.264Z,10.56
2022-12-26T13:46:32.758Z,10.56
2022-12-26T13:47:24.936Z,10.56
2022-12-26T13:48:26.580Z,10.56
2022-12-26T13:49:25.120Z,10.56
2022-12-26T13:51:24.276Z,10.59
2022-12-26T13:53:25.517Z,10.56
2022-12-26T13:55:25.202Z,10.56
2022-12-26T13:57:24.826Z,10.58
2022-12-26T13:59:25.528Z,10.56
2022-12-26T14:00:26.190Z,10.56
2022-12-26T14:01:25.373Z,10.56
2022-12-26T14:02:50.169Z,10.56
2022-12-26T14:03:28.812Z,10.57
2022-12-26T14:04:31.156Z,10.61
2022-12-26T14:05:25.040Z,10.61
2022-12-26T14:07:26.200Z,10.62
2022-12-26T14:09:25.411Z,10.56
2022-12-26T14:11:25.647Z,10.58
2022-12-26T14:13:25.693Z,10.56
2022-12-26T14:15:24.600Z,10.56
2022-12-26T14:17:25.897Z,10.56
2022-12-26T14:19:24.431Z,10.56
2022-12-26T14:21:25.773Z,10.54
2022-12-26T14:22:26.611Z,10.56
2022-12-26T14:23:25.302Z,10.55
2022-12-26T14:25:25.182Z,10.55
2022-12-26T14:27:25.686Z,10.56
2022-12-26T14:29:25.589Z,10.56
2022-12-26T14:31:25.741Z,10.56
2022-12-26T14:33:24.619Z,10.56
2022-12-26T14:35:23.741Z,10.56
2022-12-26T14:37:23.267Z,10.50
2022-12-26T14:39:23.253Z,10.5
2022-12-26T14:41:23.791Z,10.5
2022-12-26T14:43:24.159Z,10.5
2022-12-26T14:45:23.910Z,10.5
2022-12-26T14:47:23.184Z,10.5
2022-12-26T14:49:22.903Z,10.48
2022-12-26T14:51:23.018Z,10.5
2022-12-26T14:52:22.816Z,10.45
2022-12-26T14:53:23.830Z,10.5
2022-12-26T14:55:23.885Z,10.47
2022-12-26T14:57:25.959Z,10.43
2022-12-26T14:59:25.825Z,10.47
2022-12-26T15:00:27.134Z,10.43
2022-12-26T15:01:26.047Z,10.43
2022-12-26T15:03:25.274Z,10.43
2022-12-26T15:05:25.589Z,10.39
2022-12-26T15:06:25.735Z,10.40
2022-12-26T15:07:30.711Z,10.43
2022-12-26T15:09:25.397Z,10.43
2022-12-26T15:11:25.435Z,10.40
2022-12-26T15:13:25.090Z,10.43
2022-12-26T15:15:27.688Z,10.43
2022-12-26T15:17:26.545Z,10.41
2022-12-26T15:19:26.325Z,10.39
2022-12-26T15:21:25.345Z,10.37
2022-12-26T15:23:25.365Z,10.38
2022-12-26T15:25:30.084Z,10.37
2022-12-26T15:27:26.698Z,10.37
2022-12-26T15:29:24.793Z,10.37
2022-12-26T15:31:25.359Z,10.37
2022-12-26T15:33:25.463Z,10.37
2022-12-26T15:35:26.990Z,10.37
2022-12-26T15:37:25.774Z,10.37
2022-12-26T15:39:26.270Z,10.31
2022-12-26T15:40:26.065Z,10.31
2022-12-26T15:41:25.629Z,10.31
2022-12-26T15:43:24.074Z,10.33
2022-12-26T15:45:28.175Z,10.31
2022-12-26T15:47:23.528Z,10.31
2022-12-26T15:49:23.440Z,10.31
2022-12-26T15:51:23.955Z,10.31
2022-12-26T15:53:23.760Z,10.26
2022-12-26T15:55:24.290Z,10.25
2022-12-26T15:57:28.721Z,10.25
2022-12-26T15:59:24.140Z,10.25
2022-12-26T16:01:28.811Z,10.22
2022-12-26T16:03:24.012Z,10.25
2022-12-26T16:05:28.709Z,10.18
2022-12-26T16:07:23.967Z,10.18
2022-12-26T16:09:24.271Z,10.18
2022-12-26T16:11:24.300Z,10.18
2022-12-26T16:13:23.304Z,10.18
2022-12-26T16:15:38.037Z,10.18
2022-12-26T16:17:23.083Z,10.13
2022-12-26T16:19:22.829Z,10.18
2022-12-26T16:20:27.632Z,10.18
2022-12-26T16:21:23.769Z,10.17
2022-12-26T16:23:23.879Z,10.18
2022-12-26T16:25:23.711Z,10.18
2022-12-26T16:27:42.516Z,10.12
2022-12-26T16:29:22.881Z,10.12
2022-12-26T16:31:31.429Z,10.12
2022-12-26T16:33:32.281Z,10.12
2022-12-26T16:35:22.916Z,10.12
2022-12-26T16:37:22.885Z,10.12
2022-12-26T16:38:23.809Z,10.12
2022-12-26T16:39:23.790Z,10.12
2022-12-26T16:41:23.819Z,10.12
2022-12-26T16:43:23.060Z,10.08
2022-12-26T16:45:23.494Z,10.06
2022-12-26T16:47:23.980Z,10.06
2022-12-26T16:49:42.560Z,10.06
2022-12-26T16:51:23.200Z,10.06
2022-12-26T16:53:23.677Z,10.06
2022-12-26T16:55:24.317Z,10.06
2022-12-26T16:57:23.603Z,10.05
2022-12-26T16:59:26.812Z,10.06
2022-12-26T17:01:24.141Z,10.06
2022-12-26T17:03:23.364Z,10.06
2022-12-26T17:05:45.699Z,10.06
2022-12-26T17:07:23.664Z,10.06
2022-12-26T17:09:26.144Z,10.06
2022-12-26T17:10:23.561Z,10.06
2022-12-26T17:11:23.505Z,10.06
2022-12-26T17:13:24.020Z,10.01
2022-12-26T17:15:23.726Z,10
2022-12-26T17:17:23.816Z,10
2022-12-26T17:19:25.217Z,9.979
2022-12-26T17:21:23.853Z,10
2022-12-26T17:23:23.210Z,10
2022-12-26T17:25:23.719Z,9.937
2022-12-26T17:27:23.586Z,9.937
2022-12-26T17:29:23.357Z,9.885
2022-12-26T17:31:23.968Z,9.875
2022-12-26T17:33:24.229Z,9.926
2022-12-26T17:35:23.981Z,9.885
2022-12-26T17:37:18.557Z,9.875
2022-12-26T17:37:28.881Z,9.875
2022-12-26T17:39:23.327Z,9.864
2022-12-26T17:41:23.860Z,9.812
2022-12-26T17:43:24.007Z,9.875
2022-12-26T17:45:23.275Z,9.875
2022-12-26T17:47:24.169Z,9.837
2022-12-26T17:49:23.441Z,9.824
2022-12-26T17:51:23.530Z,9.812
2022-12-26T17:53:24.176Z,9.812
2022-12-26T17:55:23.871Z,9.812
2022-12-26T17:57:24.200Z,9.791
2022-12-26T17:59:23.319Z,9.812
2022-12-26T18:01:30.291Z,9.812
2022-12-26T18:03:24.487Z,9.812
2022-12-26T18:05:23.859Z,9.812
2022-12-26T18:07:30.295Z,9.812
2022-12-26T18:09:23.636Z,9.801
2022-12-26T18:11:23.941Z,9.770
2022-12-26T18:13:23.748Z,9.812
2022-12-26T18:15:23.812Z,9.812
2022-12-26T18:17:23.892Z,9.801
2022-12-26T18:19:23.470Z,9.812
2022-12-26T18:21:23.779Z,9.801
2022-12-26T18:23:22.891Z,9.75
2022-12-26T18:25:23.184Z,9.75
2022-12-26T18:27:23.418Z,9.75
2022-12-26T18:29:23.254Z,9.75
2022-12-26T18:31:23.627Z,9.75
2022-12-26T18:33:24.145Z,9.75
2022-12-26T18:35:23.178Z,9.75
2022-12-26T18:37:23.587Z,9.708
2022-12-26T18:39:24.108Z,9.687
2022-12-26T18:41:24.021Z,9.687
2022-12-26T18:42:22.983Z,9.687
2022-12-26T18:43:22.855Z,9.687
2022-12-26T18:45:23.289Z,9.687
2022-12-26T18:47:24.046Z,9.687
2022-12-26T18:48:22.992Z,9.687
2022-12-26T18:49:22.729Z,9.687
2022-12-26T18:51:23.025Z,9.625
2022-12-26T18:52:26.620Z,9.625
2022-12-26T18:53:23.998Z,9.625
2022-12-26T18:55:21.114Z,9.625
2022-12-26T18:56:23.055Z,9.604
2022-12-26T18:57:23.132Z,9.572
2022-12-26T18:59:23.692Z,9.625
2022-12-26T19:00:43.579Z,8
2022-12-26T19:01:24.260Z,9.625
2022-12-26T19:03:24.929Z,9.625
2022-12-26T19:05:23.463Z,9.562
2022-12-26T19:07:23.955Z,9.562
2022-12-26T19:09:22.976Z,9.562
2022-12-26T19:11:23.005Z,7.900
2022-12-26T19:13:23.403Z,9.5
2022-12-26T19:15:24.213Z,9.5
2022-12-26T19:17:24.096Z,9.5
2022-12-26T19:19:23.050Z,9.5
2022-12-26T19:21:23.556Z,9.5
2022-12-26T19:23:23.587Z,9.437
2022-12-26T19:25:24.373Z,9.437
2022-12-26T19:27:23.919Z,9.437
2022-12-26T19:29:23.908Z,9.395
2022-12-26T19:31:24.350Z,9.375
2022-12-26T19:33:23.848Z,7.800
2022-12-26T19:35:24.049Z,9.385
2022-12-26T19:37:23.675Z,9.375
2022-12-26T19:39:23.748Z,9.437
2022-12-26T19:40:30.248Z,9.406
2022-12-26T19:41:23.548Z,9.426
2022-12-26T19:43:24.295Z,9.395
2022-12-26T19:45:23.527Z,9.375
2022-12-26T19:47:12.233Z,9.333
2022-12-26T19:47:23.368Z,9.333
2022-12-26T19:49:26.388Z,9.312
2022-12-26T19:51:23.778Z,9.322
2022-12-26T19:53:23.033Z,9.375
2022-12-26T19:54:22.594Z,9.375
2022-12-26T19:55:23.460Z,9.343
2022-12-26T19:57:22.892Z,9.312
2022-12-26T19:59:23.435Z,9.312
2022-12-26T20:01:22.941Z,9.364
2022-12-26T20:03:22.756Z,9.312
2022-12-26T20:05:23.314Z,9.312
2022-12-26T20:07:23.885Z,9.25
2022-12-26T20:09:22.832Z,9.25
2022-12-26T20:11:22.592Z,9.25
2022-12-26T20:13:22.549Z,9.25
2022-12-26T20:15:24.081Z,9.25
2022-12-26T20:17:20.989Z,9.25
2022-12-26T20:17:29.263Z,9.25
2022-12-26T20:19:24.027Z,9.229
2022-12-26T20:20:22.894Z,9.229
2022-12-26T20:21:23.426Z,9.197
2022-12-26T20:23:22.946Z,9.25
2022-12-26T20:25:23.486Z,9.25
2022-12-26T20:27:24.129Z,9.187
2022-12-26T20:29:23.514Z,9.187
2022-12-26T20:31:23.465Z,9.187
2022-12-26T20:33:23.208Z,9.187
2022-12-26T20:35:23.397Z,9.187
2022-12-26T20:37:22.958Z,9.125
2022-12-26T20:39:22.813Z,9.187
2022-12-26T20:41:23.637Z,9.187
2022-12-26T20:42:22.827Z,9.187
2022-12-26T20:43:22.896Z,9.156
2022-12-26T20:45:28.236Z,9.135
2022-12-26T20:47:23.594Z,9.176
2022-12-26T20:49:23.710Z,9.125
2022-12-26T20:51:23.040Z,9.125
2022-12-26T20:53:28.353Z,9.125
2022-12-26T20:55:31.249Z,9.125
2022-12-26T20:57:23.066Z,9.087
2022-12-26T20:59:22.792Z,9.125
2022-12-26T21:01:23.535Z,9.125
2022-12-26T21:03:36.947Z,9.062
2022-12-26T21:05:22.853Z,9.049
2022-12-26T21:07:23.378Z,9
2022-12-26T21:09:22.985Z,9.062
2022-12-26T21:11:22.883Z,9.051
2022-12-26T21:13:23.310Z,8.979
2022-12-26T21:15:22.492Z,8.989
2022-12-26T21:17:23.343Z,8.979
2022-12-26T21:18:22.618Z,8.979
2022-12-26T21:19:24.459Z,8.947
2022-12-26T21:21:22.486Z,8.937
2022-12-26T21:23:41.818Z,8.937
2022-12-26T21:25:22.466Z,8.937
2022-12-26T21:27:23.235Z,8.875
2022-12-26T21:29:22.800Z,8.895
2022-12-26T21:31:22.698Z,8.885
2022-12-26T21:33:23.049Z,8.937
2022-12-26T21:35:23.787Z,8.937
2022-12-26T21:37:23.499Z,8.937
2022-12-26T21:39:51.468Z,8.916
2022-12-26T21:41:22.363Z,8.875
2022-12-26T21:43:22.987Z,8.906
2022-12-26T21:44:22.763Z,8.895
2022-12-26T21:45:23.880Z,8.937
2022-12-26T21:47:23.534Z,8.968
2022-12-26T21:49:22.851Z,8.937
2022-12-26T21:51:23.100Z,8.916
2022-12-26T21:52:22.538Z,8.916
2022-12-26T21:53:23.318Z,8.875
2022-12-26T21:55:24.062Z,8.926
2022-12-26T21:56:22.800Z,8.926
2022-12-26T21:57:23.869Z,8.895
2022-12-26T21:59:23.692Z,8.937
2022-12-26T22:01:24.707Z,8.937
2022-12-26T22:03:23.555Z,8.937
2022-12-26T22:05:23.642Z,8.875
2022-12-26T22:07:23.235Z,8.937
2022-12-26T22:09:23.831Z,8.885
2022-12-26T22:11:22.755Z,8.937
2022-12-26T22:13:23.279Z,8.937
2022-12-26T22:15:23.005Z,8.854
2022-12-26T22:17:22.942Z,8.885
2022-12-26T22:19:22.787Z,8.937
2022-12-26T22:20:23.697Z,8.885
2022-12-26T22:21:23.498Z,8.926
2022-12-26T22:23:23.002Z,8.875
2022-12-26T22:25:22.952Z,8.887
2022-12-26T22:27:23.928Z,8.887
2022-12-26T22:28:31.740Z,8.937
2022-12-26T22:29:23.311Z,8.887
2022-12-26T22:31:24.048Z,8.849
2022-12-26T22:33:23.823Z,8.875
2022-12-26T22:35:27.454Z,8.937
2022-12-26T22:37:23.146Z,8.875
2022-12-26T22:39:23.379Z,8.862
2022-12-26T22:41:22.965Z,8.875
2022-12-26T22:43:23.454Z,8.875
2022-12-26T22:45:23.532Z,8.833
2022-12-26T22:47:23.077Z,8.875
2022-12-26T22:49:23.793Z,8.812
2022-12-26T22:51:23.110Z,8.843
2022-12-26T22:53:22.850Z,8.875
2022-12-26T22:55:23.247Z,8.854
2022-12-26T22:57:23.318Z,8.833